createdAt,value
2019-01-30T00:02:11.220Z,-1.60
2019-01-30T00:04:41.804Z,-1.60
2019-01-30T00:07:12.472Z,-1.60
2019-01-30T00:09:43.075Z,-1.70
2019-01-30T00:12:13.781Z,-1.70
2019-01-30T00:14:44.268Z,-1.70
2019-01-30T00:17:14.854Z,-1.50
2019-01-30T00:19:45.454Z,-1.60
2019-01-30T00:22:16.037Z,-1.60
2019-01-30T00:24:46.633Z,-1.60
2019-01-30T00:27:17.140Z,-1.60
2019-01-30T00:29:47.586Z,-1.60
2019-01-30T00:32:18.202Z,-1.60
2019-01-30T00:34:48.779Z,-1.60
2019-01-30T00:37:19.364Z,-1.60
2019-01-30T00:39:50.064Z,-1.60
2019-01-30T00:42:20.687Z,-1.50
2019-01-30T00:44:51.294Z,-1.50
2019-01-30T00:47:21.880Z,-1.60
2019-01-30T00:49:52.516Z,-1.60
2019-01-30T00:52:23.142Z,-1.60
2019-01-30T00:54:53.739Z,-1.60
2019-01-30T00:57:24.335Z,-1.60
2019-01-30T00:59:54.924Z,-1.60
2019-01-30T01:02:25.558Z,-1.60
2019-01-30T01:04:56.094Z,-1.70
2019-01-30T01:07:26.570Z,-1.70
2019-01-30T01:09:57.100Z,-1.80
2019-01-30T01:12:27.534Z,-1.70
2019-01-30T01:14:58.089Z,-1.70
2019-01-30T01:17:28.666Z,-1.70
2019-01-30T01:19:59.196Z,-1.60
2019-01-30T01:22:29.808Z,-1.60
2019-01-30T01:25:00.484Z,-1.50
2019-01-30T01:27:31.090Z,-1.50
2019-01-30T01:30:01.759Z,-1.60
2019-01-30T01:32:32.426Z,-1.60
2019-01-30T01:35:02.953Z,-1.70
2019-01-30T01:37:33.606Z,-1.70
2019-01-30T01:40:05.423Z,-1.80
2019-01-30T01:42:36.068Z,-1.80
2019-01-30T01:45:08.127Z,-1.80
2019-01-30T01:47:38.752Z,-1.80
2019-01-30T01:50:11.132Z,-1.80
2019-01-30T01:52:41.747Z,-1.80
2019-01-30T01:55:12.410Z,-1.90
2019-01-30T01:57:43.016Z,-1.90
2019-01-30T02:00:18.725Z,-2.00
2019-01-30T02:02:49.350Z,-1.90
2019-01-30T02:05:21.497Z,-1.90
2019-01-30T02:07:52.184Z,-2.00
2019-01-30T02:10:23.488Z,-2.00
2019-01-30T02:12:53.995Z,-2.00
2019-01-30T02:15:24.552Z,-2.10
2019-01-30T02:17:55.079Z,-2.10
2019-01-30T02:20:30.915Z,-2.20
2019-01-30T02:23:01.621Z,-2.30
2019-01-30T02:25:32.282Z,-2.30
2019-01-30T02:28:02.835Z,-2.40
2019-01-30T02:30:33.528Z,-2.50
2019-01-30T02:33:04.162Z,-2.50
2019-01-30T02:35:34.755Z,-2.60
2019-01-30T02:38:05.389Z,-2.60
2019-01-30T02:40:35.966Z,-2.60
2019-01-30T02:43:06.551Z,-2.60
2019-01-30T02:45:37.339Z,-2.60
2019-01-30T02:48:07.934Z,-2.60
2019-01-30T02:50:38.555Z,-2.60
2019-01-30T02:53:09.046Z,-2.70
2019-01-30T02:55:39.642Z,-2.70
2019-01-30T02:58:10.270Z,-2.70
2019-01-30T03:00:40.927Z,-2.80
2019-01-30T03:03:11.431Z,-2.70
2019-01-30T03:05:42.027Z,-2.70
2019-01-30T03:08:12.573Z,-2.60
2019-01-30T03:10:43.040Z,-2.50
2019-01-30T03:13:13.666Z,-2.50
2019-01-30T03:15:44.376Z,-2.40
2019-01-30T03:18:15.229Z,-2.50
2019-01-30T03:20:45.724Z,-2.50
2019-01-30T03:23:17.159Z,-2.50
2019-01-30T03:25:47.678Z,-2.50
2019-01-30T03:28:18.294Z,-2.50
2019-01-30T03:30:48.911Z,-2.50
2019-01-30T03:33:19.785Z,-2.50
2019-01-30T03:35:50.284Z,-2.50
2019-01-30T03:38:20.918Z,-2.40
2019-01-30T03:40:51.518Z,-2.40
2019-01-30T03:43:22.081Z,-2.40
2019-01-30T03:45:52.702Z,-2.40
2019-01-30T03:48:23.283Z,-2.30
2019-01-30T03:50:53.839Z,-2.30
2019-01-30T03:53:24.539Z,-2.30
2019-01-30T03:55:55.033Z,-2.30
2019-01-30T03:58:25.658Z,-2.30
2019-01-30T04:00:56.165Z,-2.20
2019-01-30T04:03:26.716Z,-2.30
2019-01-30T04:05:57.360Z,-2.20
2019-01-30T04:08:28.023Z,-2.20
2019-01-30T04:10:58.609Z,-2.20
2019-01-30T04:13:29.185Z,-2.20
2019-01-30T04:15:59.675Z,-2.20
2019-01-30T04:18:30.269Z,-2.10
2019-01-30T04:21:00.894Z,-2.10
2019-01-30T04:23:31.571Z,-2.10
2019-01-30T04:26:02.146Z,-2.00
2019-01-30T04:28:32.893Z,-2.00
2019-01-30T04:31:03.398Z,-2.00
2019-01-30T04:33:34.026Z,-2.00
2019-01-30T04:36:04.762Z,-1.90
2019-01-30T04:38:35.378Z,-1.90
2019-01-30T04:41:06.003Z,-1.80
2019-01-30T04:43:36.680Z,-1.80
2019-01-30T04:46:07.146Z,-1.80
2019-01-30T04:48:37.763Z,-1.80
2019-01-30T04:51:08.358Z,-1.80
2019-01-30T04:53:39.002Z,-1.70
2019-01-30T04:56:09.611Z,-1.70
2019-01-30T04:58:40.199Z,-1.80
2019-01-30T05:01:10.770Z,-1.80
2019-01-30T05:03:41.309Z,-1.80
2019-01-30T05:06:11.915Z,-1.80
2019-01-30T05:08:42.603Z,-1.80
2019-01-30T05:11:13.179Z,-1.80
2019-01-30T05:13:43.835Z,-1.80
2019-01-30T05:16:14.360Z,-1.80
2019-01-30T05:18:44.989Z,-1.80
2019-01-30T05:21:15.542Z,-1.80
2019-01-30T05:23:46.189Z,-1.80
2019-01-30T05:26:16.806Z,-1.80
2019-01-30T05:28:47.471Z,-1.80
2019-01-30T05:31:18.087Z,-1.80
2019-01-30T05:33:48.736Z,-1.80
2019-01-30T05:36:19.352Z,-1.80
2019-01-30T05:38:50.018Z,-1.80
2019-01-30T05:41:20.582Z,-1.80
2019-01-30T05:43:51.148Z,-1.80
2019-01-30T05:46:21.756Z,-1.80
2019-01-30T05:48:55.521Z,-1.80
2019-01-30T05:51:26.030Z,-1.80
2019-01-30T05:53:56.594Z,-1.90
2019-01-30T05:56:27.231Z,-1.80
2019-01-30T05:58:57.937Z,-1.90
2019-01-30T06:01:28.553Z,-1.90
2019-01-30T06:03:59.359Z,-2.00
2019-01-30T06:06:30.043Z,-2.00
2019-01-30T06:09:00.640Z,-2.00
2019-01-30T06:11:31.247Z,-2.00
2019-01-30T06:14:01.973Z,-1.90
2019-01-30T06:16:32.599Z,-1.90
2019-01-30T06:19:03.176Z,-1.90
2019-01-30T06:21:33.824Z,-1.90
2019-01-30T06:24:04.437Z,-1.90
2019-01-30T06:26:35.044Z,-1.90
2019-01-30T06:29:05.572Z,-1.90
2019-01-30T06:31:36.137Z,-1.90
2019-01-30T06:34:06.773Z,-1.90
2019-01-30T06:36:37.499Z,-1.90
2019-01-30T06:39:08.516Z,-1.90
2019-01-30T06:41:39.112Z,-2.00
2019-01-30T06:44:09.618Z,-1.90
2019-01-30T06:46:40.234Z,-2.00
2019-01-30T06:49:10.921Z,-2.00
2019-01-30T06:51:41.597Z,-1.90
2019-01-30T06:54:12.243Z,-2.00
2019-01-30T06:56:43.012Z,-2.00
2019-01-30T06:59:13.565Z,-2.00
2019-01-30T07:01:44.231Z,-2.00
2019-01-30T07:04:14.848Z,-2.00
2019-01-30T07:06:45.496Z,-1.90
2019-01-30T07:09:16.060Z,-1.90
2019-01-30T07:11:46.656Z,-1.90
2019-01-30T07:14:17.253Z,-1.90
2019-01-30T07:16:47.919Z,-1.90
2019-01-30T07:19:18.665Z,-1.90
2019-01-30T07:21:49.231Z,-1.80
2019-01-30T07:24:19.867Z,-1.80
2019-01-30T07:26:50.554Z,-1.80
2019-01-30T07:29:21.072Z,-1.80
2019-01-30T07:31:51.636Z,-1.80
2019-01-30T07:34:22.233Z,-1.80
2019-01-30T07:36:52.858Z,-1.80
2019-01-30T07:39:23.464Z,-1.80
2019-01-30T07:41:54.071Z,-1.70
2019-01-30T07:44:24.618Z,-1.70
2019-01-30T07:46:55.283Z,-1.60
2019-01-30T07:49:25.942Z,-1.60
2019-01-30T07:51:56.539Z,-1.50
2019-01-30T07:54:27.162Z,-1.50
2019-01-30T07:56:57.778Z,-1.50
2019-01-30T07:59:28.304Z,-1.50
2019-01-30T08:01:59.000Z,-1.40
2019-01-30T08:04:29.636Z,-1.30
2019-01-30T08:07:02.850Z,-1.20
2019-01-30T08:09:32.660Z,-1.20
2019-01-30T08:12:03.245Z,-1.10
2019-01-30T08:14:33.881Z,-1.10
2019-01-30T08:17:04.488Z,-1.10
2019-01-30T08:19:35.154Z,-1.10
2019-01-30T08:22:05.720Z,-1.10
2019-01-30T08:24:36.530Z,-1.20
2019-01-30T08:27:07.972Z,-1.30
2019-01-30T08:29:38.753Z,-1.20
2019-01-30T08:32:10.026Z,-1.20
2019-01-30T08:34:40.661Z,-1.30
2019-01-30T08:37:11.208Z,-1.30
2019-01-30T08:39:41.847Z,-1.30
2019-01-30T08:42:12.501Z,-1.30
2019-01-30T08:44:47.107Z,-1.30
2019-01-30T08:47:15.453Z,-1.30
2019-01-30T08:49:46.060Z,-1.20
2019-01-30T08:52:16.766Z,-1.20
2019-01-30T08:54:47.352Z,-1.10
2019-01-30T08:57:18.017Z,-1.10
2019-01-30T08:59:48.606Z,-1.00
2019-01-30T09:02:21.037Z,-1.00
2019-01-30T09:04:51.416Z,-0.90
2019-01-30T09:07:22.073Z,-0.90
2019-01-30T09:09:52.719Z,-0.90
2019-01-30T09:12:23.555Z,-0.90
2019-01-30T09:14:54.137Z,-0.80
2019-01-30T09:17:24.787Z,-0.80
2019-01-30T09:19:55.434Z,-0.80
2019-01-30T09:22:26.030Z,-0.80
2019-01-30T09:24:56.546Z,-0.70
2019-01-30T09:27:27.102Z,-0.80
2019-01-30T09:29:57.738Z,-0.70
2019-01-30T09:32:28.414Z,-0.70
2019-01-30T09:34:58.940Z,-0.70
2019-01-30T09:37:29.607Z,-0.80
2019-01-30T09:40:00.123Z,-0.70
2019-01-30T09:42:30.999Z,-0.80
2019-01-30T09:45:01.616Z,-0.70
2019-01-30T09:47:32.262Z,-0.70
2019-01-30T09:50:03.010Z,-0.70
2019-01-30T09:52:33.747Z,-0.70
2019-01-30T09:55:05.000Z,-0.70
2019-01-30T09:57:35.670Z,-0.70
2019-01-30T10:00:08.393Z,-0.70
2019-01-30T10:02:38.980Z,-0.70
2019-01-30T10:05:10.119Z,-0.70
2019-01-30T10:07:40.781Z,-0.60
2019-01-30T10:10:15.029Z,-0.60
2019-01-30T10:12:45.721Z,-0.60
2019-01-30T10:15:18.122Z,-0.60
2019-01-30T10:17:48.729Z,-0.50
2019-01-30T10:20:21.954Z,-0.60
2019-01-30T10:22:52.601Z,-0.60
2019-01-30T10:25:23.257Z,-0.60
2019-01-30T10:27:53.856Z,-0.70
2019-01-30T10:30:26.960Z,-0.70
2019-01-30T10:32:57.586Z,-0.60
2019-01-30T10:35:28.287Z,-0.70
2019-01-30T10:37:58.932Z,-0.70
2019-01-30T10:40:29.425Z,-0.70
2019-01-30T10:43:00.025Z,-0.60
2019-01-30T10:45:30.626Z,-0.70
2019-01-30T10:48:01.174Z,-0.60
2019-01-30T10:50:31.910Z,-0.60
2019-01-30T10:53:02.506Z,-0.60
2019-01-30T10:55:33.352Z,-0.70
2019-01-30T10:58:06.429Z,-0.60
2019-01-30T11:00:48.721Z,-0.60
2019-01-30T11:03:19.546Z,-0.50
2019-01-30T11:05:49.952Z,-0.50
2019-01-30T11:08:20.429Z,-0.50
2019-01-30T11:10:51.144Z,-0.40
2019-01-30T11:13:21.740Z,-0.50
2019-01-30T11:15:52.349Z,-0.50
2019-01-30T11:18:23.002Z,-0.50
2019-01-30T11:20:53.697Z,-0.50
2019-01-30T11:23:24.224Z,-0.50
2019-01-30T11:25:56.948Z,-0.50
2019-01-30T11:28:27.158Z,-0.50
2019-01-30T11:30:57.823Z,-0.50
2019-01-30T11:33:28.490Z,-0.50
2019-01-30T11:35:59.127Z,-0.50
2019-01-30T11:38:29.712Z,-0.40
2019-01-30T11:41:00.308Z,-0.40
2019-01-30T11:43:30.954Z,-0.30
2019-01-30T11:46:01.627Z,-0.30
2019-01-30T11:48:32.298Z,-0.30
2019-01-30T11:51:02.804Z,-0.30
2019-01-30T11:53:33.419Z,-0.30
2019-01-30T11:56:04.107Z,-0.30
2019-01-30T11:58:34.612Z,-0.20
2019-01-30T12:01:05.469Z,-0.10
2019-01-30T12:03:36.115Z,-0.20
2019-01-30T12:06:06.721Z,-0.10
2019-01-30T12:08:37.357Z,-0.10
2019-01-30T12:11:07.978Z,-0.10
2019-01-30T12:13:38.580Z,0.00
2019-01-30T12:16:09.215Z,0.00
2019-01-30T12:18:39.832Z,0.00
2019-01-30T12:21:10.438Z,0.10
2019-01-30T12:23:41.045Z,0.00
2019-01-30T12:26:11.601Z,0.00
2019-01-30T12:28:42.018Z,0.00
2019-01-30T12:31:12.484Z,0.00
2019-01-30T12:33:43.011Z,0.00
2019-01-30T12:36:13.596Z,0.10
2019-01-30T12:38:45.002Z,0.00
2019-01-30T12:41:15.499Z,0.00
2019-01-30T12:43:45.958Z,0.10
2019-01-30T12:46:16.545Z,0.00
2019-01-30T12:48:48.867Z,0.00
2019-01-30T12:51:19.426Z,0.00
2019-01-30T12:53:50.252Z,0.00
2019-01-30T12:56:20.708Z,0.00
2019-01-30T12:58:51.315Z,-0.10
2019-01-30T13:01:21.954Z,-0.10
2019-01-30T13:03:52.559Z,-0.10
2019-01-30T13:06:23.173Z,-0.10
2019-01-30T13:08:53.664Z,-0.10
2019-01-30T13:11:24.266Z,0.00
2019-01-30T13:13:54.873Z,0.00
2019-01-30T13:16:25.431Z,0.00
2019-01-30T13:18:56.014Z,0.00
2019-01-30T13:21:26.671Z,0.00
2019-01-30T13:23:57.169Z,0.00
2019-01-30T13:26:27.703Z,0.00
2019-01-30T13:28:58.320Z,0.00
2019-01-30T13:31:28.997Z,0.00
2019-01-30T13:33:59.603Z,0.00
2019-01-30T13:36:30.229Z,0.00
2019-01-30T13:39:00.857Z,0.00
2019-01-30T13:41:31.542Z,-0.10
2019-01-30T13:44:02.169Z,0.00
2019-01-30T13:46:32.785Z,-0.10
2019-01-30T13:49:03.420Z,-0.10
2019-01-30T13:51:33.926Z,-0.10
2019-01-30T13:54:05.402Z,0.00
2019-01-30T13:56:36.043Z,0.00
2019-01-30T13:59:06.746Z,0.00
2019-01-30T14:01:37.316Z,0.00
2019-01-30T14:04:07.900Z,-0.10
2019-01-30T14:06:38.602Z,-0.10
2019-01-30T14:09:09.970Z,-0.10
2019-01-30T14:11:40.647Z,0.00
2019-01-30T14:14:11.214Z,0.00
2019-01-30T14:16:41.949Z,0.10
2019-01-30T14:19:12.536Z,0.00
2019-01-30T14:21:43.244Z,0.00
2019-01-30T14:24:13.904Z,0.00
2019-01-30T14:26:44.519Z,0.00
2019-01-30T14:29:15.141Z,0.10
2019-01-30T14:31:45.781Z,0.10
2019-01-30T14:34:16.474Z,0.10
2019-01-30T14:36:47.120Z,0.20
2019-01-30T14:39:17.719Z,0.20
2019-01-30T14:41:48.322Z,0.20
2019-01-30T14:44:19.031Z,0.20
2019-01-30T14:46:49.596Z,0.20
2019-01-30T14:49:20.173Z,0.10
2019-01-30T14:51:50.809Z,0.10
2019-01-30T14:54:21.520Z,0.10
2019-01-30T14:56:52.061Z,0.10
2019-01-30T14:59:22.707Z,0.10
2019-01-30T15:01:54.244Z,0.10
2019-01-30T15:04:24.947Z,0.10
2019-01-30T15:06:55.456Z,0.10
2019-01-30T15:09:26.106Z,0.00
2019-01-30T15:11:56.683Z,0.00
2019-01-30T15:14:27.368Z,-0.10
2019-01-30T15:16:57.899Z,-0.10
2019-01-30T15:19:28.604Z,-0.10
2019-01-30T15:21:59.176Z,-0.10
2019-01-30T15:24:29.840Z,-0.10
2019-01-30T15:27:00.447Z,-0.20
2019-01-30T15:29:31.122Z,-0.20
2019-01-30T15:32:01.739Z,-0.20
2019-01-30T15:34:32.437Z,-0.30
2019-01-30T15:37:03.012Z,-0.40
2019-01-30T15:39:33.687Z,-0.40
2019-01-30T15:42:04.336Z,-0.40
2019-01-30T15:44:34.951Z,-0.50
2019-01-30T15:47:05.437Z,-0.50
2019-01-30T15:49:36.033Z,-0.50
2019-01-30T15:52:06.719Z,-0.50
2019-01-30T15:54:37.406Z,-0.50
2019-01-30T15:57:08.032Z,-0.50
2019-01-30T15:59:38.760Z,-0.50
2019-01-30T16:02:09.338Z,-0.50
2019-01-30T16:04:41.768Z,-0.60
2019-01-30T16:07:12.277Z,-0.60
2019-01-30T16:09:43.113Z,-0.70
2019-01-30T16:12:13.920Z,-0.70
2019-01-30T16:14:44.667Z,-0.80
2019-01-30T16:17:15.271Z,-0.80
2019-01-30T16:19:46.000Z,-0.80
2019-01-30T16:22:16.625Z,-0.70
2019-01-30T16:24:47.421Z,-0.70
2019-01-30T16:27:18.049Z,-0.80
2019-01-30T16:29:48.627Z,-0.80
2019-01-30T16:32:19.189Z,-0.80
2019-01-30T16:34:49.886Z,-0.80
2019-01-30T16:37:20.492Z,-0.80
2019-01-30T16:39:51.160Z,-0.80
2019-01-30T16:42:21.775Z,-0.80
2019-01-30T16:44:52.480Z,-0.90
2019-01-30T16:47:23.118Z,-0.90
2019-01-30T16:49:53.915Z,-0.80
2019-01-30T16:52:24.569Z,-0.90
2019-01-30T16:54:55.165Z,-0.90
2019-01-30T16:57:25.721Z,-0.90
2019-01-30T16:59:56.449Z,-0.90
2019-01-30T17:02:27.155Z,-0.90
2019-01-30T17:04:57.842Z,-0.90
2019-01-30T17:07:28.436Z,-0.90
2019-01-30T17:09:59.002Z,-0.90
2019-01-30T17:12:29.709Z,-0.90
2019-01-30T17:15:00.316Z,-0.90
2019-01-30T17:17:31.021Z,-0.90
2019-01-30T17:20:01.649Z,-0.90
2019-01-30T17:22:32.283Z,-0.90
2019-01-30T17:25:02.969Z,-0.90
2019-01-30T17:27:33.625Z,-0.90
2019-01-30T17:30:05.222Z,-0.90
2019-01-30T17:32:35.917Z,-0.90
2019-01-30T17:35:06.602Z,-0.80
2019-01-30T17:37:37.260Z,-0.90
2019-01-30T17:40:11.317Z,-0.90
2019-01-30T17:42:41.894Z,-0.90
2019-01-30T17:45:12.510Z,-0.90
2019-01-30T17:47:43.247Z,-0.80
2019-01-30T17:50:16.393Z,-0.80
2019-01-30T17:52:47.061Z,-0.80
2019-01-30T17:55:17.655Z,-0.80
2019-01-30T17:57:48.251Z,-0.80
2019-01-30T18:00:41.872Z,-0.80
2019-01-30T18:03:12.488Z,-0.80
2019-01-30T18:05:45.546Z,-0.80
2019-01-30T18:08:16.066Z,-0.70
2019-01-30T18:10:46.688Z,-0.80
2019-01-30T18:13:17.324Z,-0.80
2019-01-30T18:15:48.000Z,-0.80
2019-01-30T18:18:18.987Z,-0.70
2019-01-30T18:20:49.663Z,-0.70
2019-01-30T18:23:20.290Z,-0.80
2019-01-30T18:25:50.858Z,-0.70
2019-01-30T18:28:21.552Z,-0.70
2019-01-30T18:30:52.137Z,-0.70
2019-01-30T18:33:22.713Z,-0.80
2019-01-30T18:35:53.501Z,-0.80
2019-01-30T18:38:24.126Z,-0.70
2019-01-30T18:40:54.761Z,-0.70
2019-01-30T18:43:25.378Z,-0.70
2019-01-30T18:45:55.954Z,-0.70
2019-01-30T18:48:26.651Z,-0.70
2019-01-30T18:50:57.339Z,-0.70
2019-01-30T18:53:27.947Z,-0.70
2019-01-30T18:55:58.450Z,-0.70
2019-01-30T18:58:29.035Z,-0.70
2019-01-30T19:00:59.671Z,-0.70
2019-01-30T19:03:30.318Z,-0.70
2019-01-30T19:06:00.994Z,-0.70
2019-01-30T19:08:31.667Z,-0.70
2019-01-30T19:11:02.308Z,-0.60
2019-01-30T19:13:33.014Z,-0.70
2019-01-30T19:16:03.609Z,-0.70
2019-01-30T19:18:34.303Z,-0.70
2019-01-30T19:21:04.932Z,-0.70
2019-01-30T19:23:35.597Z,-0.70
2019-01-30T19:26:06.243Z,-0.70
2019-01-30T19:28:36.960Z,-0.80
2019-01-30T19:31:07.606Z,-0.70
2019-01-30T19:33:38.306Z,-0.70
2019-01-30T19:36:08.929Z,-0.70
2019-01-30T19:38:39.576Z,-0.80
2019-01-30T19:41:10.230Z,-0.80
2019-01-30T19:43:40.866Z,-0.80
2019-01-30T19:46:11.505Z,-0.80
2019-01-30T19:48:42.189Z,-0.90
2019-01-30T19:51:12.828Z,-0.90
2019-01-30T19:53:43.531Z,-1.00
2019-01-30T19:56:14.177Z,-1.10
2019-01-30T19:58:44.896Z,-1.10
2019-01-30T20:01:15.403Z,-1.20
2019-01-30T20:03:45.858Z,-1.30
2019-01-30T20:06:16.482Z,-1.30
2019-01-30T20:08:47.038Z,-1.30
2019-01-30T20:11:17.675Z,-1.30
2019-01-30T20:13:48.192Z,-1.30
2019-01-30T20:16:18.766Z,-1.30
2019-01-30T20:18:49.392Z,-1.30
2019-01-30T20:21:20.079Z,-1.30
2019-01-30T20:23:50.886Z,-1.30
2019-01-30T20:26:21.530Z,-1.20
2019-01-30T20:28:52.116Z,-1.20
2019-01-30T20:31:22.785Z,-1.20
2019-01-30T20:33:53.420Z,-1.20
2019-01-30T20:36:24.047Z,-1.10
2019-01-30T20:38:54.653Z,-1.10
2019-01-30T20:41:25.319Z,-1.10
2019-01-30T20:43:55.924Z,-1.00
2019-01-30T20:46:26.470Z,-1.00
2019-01-30T20:48:57.127Z,-1.00
2019-01-30T20:51:27.723Z,-1.00
2019-01-30T20:54:00.556Z,-1.00
2019-01-30T20:56:30.495Z,-1.00
2019-01-30T20:59:00.985Z,-1.10
2019-01-30T21:01:31.638Z,-1.10
2019-01-30T21:04:02.133Z,-1.10
2019-01-30T21:06:32.760Z,-1.20
2019-01-30T21:09:03.716Z,-1.20
2019-01-30T21:11:34.332Z,-1.30
2019-01-30T21:14:05.188Z,-1.30
2019-01-30T21:16:35.765Z,-1.30
2019-01-30T21:19:06.382Z,-1.30
2019-01-30T21:21:36.848Z,-1.40
2019-01-30T21:24:07.413Z,-1.40
2019-01-30T21:26:37.989Z,-1.40
2019-01-30T21:29:08.605Z,-1.50
2019-01-30T21:31:39.525Z,-1.40
2019-01-30T21:34:10.137Z,-1.50
2019-01-30T21:36:40.694Z,-1.40
2019-01-30T21:39:11.349Z,-1.40
2019-01-30T21:41:43.090Z,-1.40
2019-01-30T21:44:13.873Z,-1.40
2019-01-30T21:46:44.410Z,-1.30
2019-01-30T21:49:15.015Z,-1.40
2019-01-30T21:51:45.601Z,-1.30
2019-01-30T21:54:16.247Z,-1.30
2019-01-30T21:56:46.883Z,-1.30
2019-01-30T21:59:17.539Z,-1.30
2019-01-30T22:01:48.196Z,-1.30
2019-01-30T22:04:18.702Z,-1.40
2019-01-30T22:06:49.298Z,-1.30
2019-01-30T22:09:19.874Z,-1.30
2019-01-30T22:11:50.511Z,-1.30
2019-01-30T22:14:21.219Z,-1.30
2019-01-30T22:16:51.931Z,-1.40
2019-01-30T22:19:22.529Z,-1.40
2019-01-30T22:21:53.065Z,-1.50
2019-01-30T22:24:23.701Z,-1.50
2019-01-30T22:26:54.327Z,-1.60
2019-01-30T22:29:24.913Z,-1.60
2019-01-30T22:31:55.379Z,-1.60
2019-01-30T22:34:26.055Z,-1.60
2019-01-30T22:36:56.542Z,-1.60
2019-01-30T22:39:28.350Z,-1.60
2019-01-30T22:42:02.166Z,-1.70
2019-01-30T22:44:31.308Z,-1.70
2019-01-30T22:47:01.807Z,-1.70
2019-01-30T22:49:32.352Z,-1.80
2019-01-30T22:52:03.009Z,-1.90
2019-01-30T22:54:33.544Z,-1.90
2019-01-30T22:57:04.157Z,-2.00
2019-01-30T22:59:34.692Z,-2.00
2019-01-30T23:02:10.218Z,-2.10
2019-01-30T23:04:48.993Z,-2.20
2019-01-30T23:07:27.681Z,-2.10
2019-01-30T23:10:33.855Z,-2.20
2019-01-30T23:13:34.361Z,-2.30
2019-01-30T23:16:24.710Z,-2.30
2019-01-30T23:19:29.324Z,-2.30
2019-01-30T23:22:47.061Z,-2.30
2019-01-30T23:25:54.426Z,-2.40
2019-01-30T23:28:51.189Z,-2.40
2019-01-30T23:31:51.622Z,-2.40
2019-01-30T23:35:21.671Z,-2.50
2019-01-30T23:38:36.349Z,-2.60
2019-01-30T23:41:46.125Z,-2.50
2019-01-30T23:45:10.056Z,-2.50
2019-01-30T23:48:11.887Z,-2.40
2019-01-30T23:51:29.115Z,-2.50
2019-01-30T23:54:42.342Z,-2.60
2019-01-30T23:57:44.377Z,-2.60
